This is the latest recevied weather packets stored in our database for station/object KO4RJX-10. If no packets are shown the sender has not sent any weather packets the latest 10 day(s).
| Time | Temp. | Humidity | Pressure | Rain* | Wind** | Luminosity | Snow |
|---|---|---|---|---|---|---|---|
| 1777674983 | 12.78° C | 78% | 1006.1 hPa | 2.29 mm | - | - | - |
| 1777672583 | 12.22° C | 81% | 1006.4 hPa | 2.29 mm | - | - | - |
| 1777670983 | 12.22° C | 76% | 1006.8 hPa | 2.29 mm | - | - | - |
| 1777662183 | 12.22° C | 73% | 1007.8 hPa | 2.29 mm | - | - | - |
| 1777660983 | 11.11° C | 79% | 1008.5 hPa | 2.29 mm | - | - | - |
| 1777660584 | 11.11° C | 78% | 1008.5 hPa | 2.29 mm | - | - | - |
| 1777658183 | 10.56° C | 82% | 1008.5 hPa | 2.29 mm | - | - | - |
| 1777657383 | 10.56° C | 79% | 1008.5 hPa | 2.29 mm | - | - | - |
| 1777654183 | 13.33° C | 48% | 1008.5 hPa | 0.25 mm | - | - | - |
| 1777652983 | 14.44° C | 46% | 1008.5 hPa | 0.25 mm | - | - | - |
| 1777651383 | 15° C | 46% | 1008.8 hPa | 0.25 mm | - | - | - |
| 1777649383 | 12.78° C | 52% | 1009.5 hPa | 0.25 mm | - | - | - |
| 1777646583 | 12.22° C | 61% | 1009.5 hPa | 0.25 mm | - | - | - |
| 1777645384 | 11.67° C | 66% | 1009.1 hPa | 0.25 mm | - | - | - |
| 1777643783 | 11.67° C | 64% | 1009.1 hPa | 0 mm | - | - | - |
| 1777643383 | 11.67° C | 64% | 1009.5 hPa | 0 mm | - | - | - |
| 1777642583 | 12.22° C | 53% | 1009.8 hPa | 0 mm | - | - | - |
| 1777638984 | 12.22° C | 58% | 1008.5 hPa | 0 mm | - | - | - |
| 1777636983 | 11.11° C | 60% | 1008.5 hPa | 0 mm | - | - | - |
| 1777636584 | 11.67° C | 60% | 1008.5 hPa | 0 mm | - | - | - |
| 1777635783 | 11.67° C | 56% | 1008.8 hPa | 0 mm | - | - | - |
| 1777634583 | 11.67° C | 56% | 1008.5 hPa | 0 mm | - | - | - |
| 1777631783 | 11.67° C | 57% | 1008.1 hPa | 0 mm | - | - | - |
| 1777630984 | 11.67° C | 58% | 1007.8 hPa | 0 mm | - | - | - |
| 1777628183 | 11.67° C | 59% | 1007.8 hPa | 0 mm | - | - | - |
* Rain since midnight (hover to see other rain measurements)
** Current wind speed in m/s (hover to see current wind gust speed)